Weather Data

Pearl Creek Farm: 8878 N Farm Road 75, Walnut Grove MO 65770

<== Previous Day (Friday 24 Jan 2020) | Next Day (Sunday 26 Jan 2020) ==>

Summary Precipitation Data For Saturday 25 January 2020

ElementValueUnits
Precipitation0"
NotesAny precipitation for this day was included with a multiple-day report on 26 January 2020.
SourcePearl Creek Farm

Summary Temperature Data For Saturday 25 January 2020

ElementValueUnits
High Temperature41 oF
Low Temperature28 oF
Average Temperature34 oF
High Humidity96 %
Low Humidity73 %
Average Humidity85 %
SourceSpringfield-Branson National Airport (SGF)

Detail Temperature Data For Saturday 25 January 2020

Date / TimeTemp (F)RH (%)Dew Pt (F)Report Date / TimeSource
2020-01-25 00:52:00 31 92 29.0 2021-01-15 18:54:53.841352 Springfield-Branson National Airport (SGF)
2020-01-25 01:52:00 31 92 29.0 2021-01-15 18:54:53.841352 Springfield-Branson National Airport (SGF)
2020-01-25 02:52:00 31 92 29.0 2021-01-15 18:54:53.841352 Springfield-Branson National Airport (SGF)
2020-01-25 03:52:00 31 92 29.0 2021-01-15 18:54:53.841352 Springfield-Branson National Airport (SGF)
2020-01-25 04:52:00 31 89 28.0 2021-01-15 18:54:53.841352 Springfield-Branson National Airport (SGF)
2020-01-25 05:52:00 30 92 28.0 2021-01-15 18:54:53.841352 Springfield-Branson National Airport (SGF)
2020-01-25 06:52:00 28 96 27.0 2021-01-15 18:54:53.841352 Springfield-Branson National Airport (SGF)
2020-01-25 07:52:00 28 96 27.0 2021-01-15 18:54:53.841352 Springfield-Branson National Airport (SGF)
2020-01-25 08:52:00 29 96 28.0 2021-01-15 18:54:53.841352 Springfield-Branson National Airport (SGF)
2020-01-25 09:52:00 29 92 27.0 2021-01-15 18:54:53.841352 Springfield-Branson National Airport (SGF)
2020-01-25 10:52:00 32 92 30.0 2021-01-15 18:54:53.841352 Springfield-Branson National Airport (SGF)
2020-01-25 11:52:00 33 89 30.0 2021-01-15 18:54:53.841352 Springfield-Branson National Airport (SGF)
2020-01-25 12:52:00 37 79 31.0 2021-01-15 18:54:53.841352 Springfield-Branson National Airport (SGF)
2020-01-25 13:52:00 39 76 32.0 2021-01-15 18:54:53.841352 Springfield-Branson National Airport (SGF)
2020-01-25 14:52:00 40 73 32.0 2021-01-15 18:54:53.841352 Springfield-Branson National Airport (SGF)
2020-01-25 15:52:00 41 73 33.0 2021-01-15 18:54:53.841352 Springfield-Branson National Airport (SGF)
2020-01-25 16:52:00 40 77 33.0 2021-01-15 18:54:53.841352 Springfield-Branson National Airport (SGF)
2020-01-25 17:52:00 39 76 32.0 2021-01-15 18:54:53.841352 Springfield-Branson National Airport (SGF)
2020-01-25 18:52:00 37 82 32.0 2021-01-15 18:54:53.841352 Springfield-Branson National Airport (SGF)
2020-01-25 19:52:00 37 79 31.0 2021-01-15 18:54:53.841352 Springfield-Branson National Airport (SGF)
2020-01-25 20:52:00 37 79 31.0 2021-01-15 18:54:53.841352 Springfield-Branson National Airport (SGF)
2020-01-25 21:52:00 38 76 31.0 2021-01-15 18:54:53.841352 Springfield-Branson National Airport (SGF)
2020-01-25 22:52:00 38 76 31.0 2021-01-15 18:54:53.841352 Springfield-Branson National Airport (SGF)
2020-01-25 23:52:00 38 76 31.0 2021-01-15 18:54:53.841352 Springfield-Branson National Airport (SGF)

A total of 24 rows are displayed.